createdAt,value
2022-10-08T00:02:53.133Z,4.72
2022-10-08T00:07:54.618Z,4.63
2022-10-08T00:12:55.976Z,4.45
2022-10-08T00:17:57.333Z,5.00
2022-10-08T00:22:58.692Z,5.05
2022-10-08T00:28:00.215Z,4.60
2022-10-08T00:33:02.421Z,4.57
2022-10-08T00:38:04.647Z,4.90
2022-10-08T00:43:07.755Z,4.22
2022-10-08T00:48:15.601Z,4.50
2022-10-08T00:53:17.543Z,4.50
2022-10-08T00:58:25.131Z,3.72
2022-10-08T01:03:26.584Z,4.57
2022-10-08T01:08:38.597Z,4.47
2022-10-08T01:13:56.342Z,4.88
2022-10-08T01:19:11.653Z,4.43
2022-10-08T01:24:58.298Z,5.32
2022-10-08T01:30:04.398Z,4.47
2022-10-08T01:35:12.628Z,4.78
2022-10-08T01:40:18.976Z,4.63
2022-10-08T01:45:32.682Z,4.40
2022-10-08T01:50:40.994Z,4.50
2022-10-08T01:55:48.454Z,4.22
2022-10-08T02:00:51.108Z,4.43
2022-10-08T02:05:54.413Z,5.85
2022-10-08T02:10:55.778Z,4.88
2022-10-08T02:16:11.121Z,5.55
2022-10-08T02:21:21.110Z,4.10
2022-10-08T02:26:29.795Z,4.80
2022-10-08T02:31:37.702Z,4.03
2022-10-08T02:36:42.742Z,4.60
2022-10-08T02:41:51.701Z,5.03
2022-10-08T02:46:58.115Z,4.63
2022-10-08T02:52:02.822Z,4.85
2022-10-08T02:57:18.650Z,5.10
2022-10-08T03:02:27.653Z,5.75
2022-10-08T03:07:31.624Z,5.55
2022-10-08T03:12:33.938Z,4.88
2022-10-08T03:17:41.234Z,5.97
2022-10-08T03:22:42.857Z,5.47
2022-10-08T03:27:44.216Z,5.60
2022-10-08T03:32:45.815Z,5.50
2022-10-08T03:37:47.346Z,6.40
2022-10-08T03:42:49.270Z,5.90
2022-10-08T03:47:52.335Z,5.75
2022-10-08T03:52:53.754Z,7.22
2022-10-08T03:57:55.142Z,7.13
2022-10-08T04:02:56.606Z,6.38
2022-10-08T04:07:58.024Z,7.20
2022-10-08T04:12:59.382Z,6.90
2022-10-08T04:18:00.765Z,6.22
2022-10-08T04:23:02.127Z,7.25
2022-10-08T04:28:06.374Z,6.43
2022-10-08T04:33:07.773Z,7.00
2022-10-08T04:38:09.133Z,7.05
2022-10-08T04:43:10.640Z,6.97
2022-10-08T04:48:12.881Z,7.97
2022-10-08T04:53:14.241Z,8.77
2022-10-08T04:58:15.620Z,8.02
2022-10-08T05:03:17.301Z,8.18
2022-10-08T05:08:18.671Z,7.33
2022-10-08T05:13:20.029Z,7.30
2022-10-08T05:18:22.413Z,7.93
2022-10-08T05:28:25.179Z,6.65
2022-10-08T05:33:26.565Z,8.20
2022-10-08T05:38:33.989Z,8.05
2022-10-08T05:43:36.345Z,7.85
2022-10-08T05:48:37.870Z,8.82
2022-10-08T05:53:41.427Z,8.97
2022-10-08T05:58:44.022Z,8.77
2022-10-08T06:03:49.196Z,8.45
2022-10-08T06:08:55.457Z,9.50
2022-10-08T06:13:59.128Z,8.80
2022-10-08T06:19:01.981Z,9.18
2022-10-08T06:24:06.692Z,9.70
2022-10-08T06:29:14.672Z,8.88
2022-10-08T06:34:16.044Z,10.27
2022-10-08T06:39:18.318Z,12.07
2022-10-08T06:44:19.781Z,14.38
2022-10-08T06:49:26.405Z,11.32
2022-10-08T06:54:27.884Z,10.40
2022-10-08T06:59:29.265Z,9.30
2022-10-08T07:04:30.741Z,9.38
2022-10-08T07:09:32.098Z,7.88
2022-10-08T07:14:33.656Z,7.00
2022-10-08T07:19:35.047Z,7.47
2022-10-08T07:24:36.400Z,7.40
2022-10-08T07:29:38.497Z,6.35
2022-10-08T07:34:39.843Z,6.80
2022-10-08T07:39:41.199Z,6.00
2022-10-08T07:44:42.594Z,6.25
2022-10-08T07:49:44.061Z,5.72
2022-10-08T07:54:45.423Z,7.88
2022-10-08T07:59:46.773Z,8.43
2022-10-08T08:04:48.184Z,6.35
2022-10-08T08:09:49.579Z,5.93
2022-10-08T08:14:50.927Z,5.70
2022-10-08T08:19:52.368Z,4.95
2022-10-08T08:24:53.844Z,6.07
2022-10-08T08:29:55.303Z,5.20
2022-10-08T08:34:56.782Z,5.20
2022-10-08T08:45:03.429Z,5.68
2022-10-08T08:50:45.481Z,3.75
2022-10-08T08:55:56.159Z,4.22
2022-10-08T09:01:12.049Z,3.97
2022-10-08T09:06:17.333Z,3.88
2022-10-08T09:11:21.886Z,4.82
2022-10-08T09:16:29.777Z,4.18
2022-10-08T09:21:33.693Z,3.40
2022-10-08T09:26:36.207Z,3.58
2022-10-08T09:31:47.939Z,4.60
2022-10-08T09:37:01.808Z,3.73
2022-10-08T09:42:18.339Z,4.45
2022-10-08T09:47:22.494Z,4.35
2022-10-08T09:52:26.923Z,4.35
2022-10-08T09:57:29.746Z,4.07
2022-10-08T10:02:36.863Z,3.97
2022-10-08T10:07:44.435Z,4.93
2022-10-08T10:12:54.435Z,4.40
2022-10-08T10:18:01.084Z,4.50
2022-10-08T10:23:22.381Z,3.50
2022-10-08T10:28:48.268Z,3.33
2022-10-08T10:33:57.574Z,3.60
2022-10-08T10:39:22.854Z,3.33
2022-10-08T10:44:34.199Z,2.75
2022-10-08T10:49:38.399Z,2.85
2022-10-08T10:54:58.485Z,3.35
2022-10-08T11:00:23.422Z,2.80
2022-10-08T11:05:32.109Z,2.95
2022-10-08T11:11:09.040Z,2.60
2022-10-08T11:16:45.193Z,2.78
2022-10-08T11:22:03.694Z,2.53
2022-10-08T11:27:38.509Z,2.33
2022-10-08T11:32:50.593Z,2.17
2022-10-08T11:38:04.944Z,1.88
2022-10-08T11:43:33.546Z,1.80
2022-10-08T11:48:35.827Z,1.98
2022-10-08T11:58:38.790Z,1.85
2022-10-08T12:03:41.757Z,1.70
2022-10-08T12:08:58.661Z,1.65
2022-10-08T12:14:12.416Z,1.60
2022-10-08T12:26:08.817Z,1.27
2022-10-08T12:32:38.234Z,1.60
2022-10-08T12:37:50.503Z,1.60
2022-10-08T12:43:07.712Z,2.00
2022-10-08T12:48:15.805Z,1.35
2022-10-08T12:53:18.224Z,1.77
2022-10-08T12:58:26.318Z,1.20
2022-10-08T13:03:27.958Z,1.60
2022-10-08T13:08:35.856Z,1.23
2022-10-08T13:13:39.961Z,1.60
2022-10-08T13:18:44.020Z,1.73
2022-10-08T13:23:45.586Z,1.92
2022-10-08T13:28:59.979Z,1.70
2022-10-08T13:34:03.856Z,1.98
2022-10-08T13:39:05.541Z,1.30
2022-10-08T13:44:08.054Z,1.50
2022-10-08T13:49:35.853Z,1.38
2022-10-08T13:54:41.501Z,1.50
2022-10-08T13:59:43.615Z,1.35
2022-10-08T14:04:44.978Z,1.80
2022-10-08T14:09:46.354Z,2.10
2022-10-08T14:14:47.818Z,1.80
2022-10-08T14:19:50.194Z,2.17
2022-10-08T14:29:53.008Z,2.10
2022-10-08T14:34:54.379Z,1.80
2022-10-08T14:39:55.744Z,1.98
2022-10-08T14:44:57.159Z,2.30
2022-10-08T14:49:58.576Z,1.70
2022-10-08T14:55:00.011Z,2.90
2022-10-08T15:00:01.417Z,1.75
2022-10-08T15:05:02.904Z,1.30
2022-10-08T15:10:08.131Z,1.52
2022-10-08T15:15:10.479Z,1.40
2022-10-08T15:20:36.554Z,1.77
2022-10-08T15:25:42.004Z,1.77
2022-10-08T15:30:56.241Z,2.35
2022-10-08T15:36:00.835Z,2.67
2022-10-08T15:41:27.154Z,2.38
2022-10-08T15:46:31.755Z,1.90
2022-10-08T15:51:41.927Z,2.40
2022-10-08T15:57:13.463Z,2.80
2022-10-08T16:02:19.499Z,3.50
2022-10-08T16:07:32.126Z,2.50
2022-10-08T16:12:37.339Z,3.05
2022-10-08T16:17:45.908Z,2.72
2022-10-08T16:22:53.705Z,2.13
2022-10-08T16:28:03.868Z,1.92
2022-10-08T16:33:17.649Z,1.95
2022-10-08T16:38:34.382Z,1.98
2022-10-08T16:43:50.421Z,1.87
2022-10-08T16:49:08.848Z,2.47
2022-10-08T16:54:20.672Z,2.92
2022-10-08T16:59:40.157Z,2.60
2022-10-08T17:04:54.862Z,2.40
2022-10-08T17:10:07.683Z,2.75
2022-10-08T17:15:15.150Z,2.90
2022-10-08T17:20:31.201Z,3.28
2022-10-08T17:25:43.328Z,2.40
2022-10-08T17:30:45.034Z,2.78
2022-10-08T17:35:48.698Z,2.43
2022-10-08T17:40:50.291Z,2.83
2022-10-08T17:45:52.884Z,2.92
2022-10-08T17:50:54.451Z,2.35
2022-10-08T17:56:01.071Z,2.70
2022-10-08T18:01:10.839Z,3.20
2022-10-08T18:06:33.362Z,2.28
2022-10-08T18:11:44.500Z,2.70
2022-10-08T18:17:03.055Z,3.10
2022-10-08T18:22:08.514Z,2.70
2022-10-08T18:27:09.874Z,3.42
2022-10-08T18:32:11.249Z,3.40
2022-10-08T18:37:12.641Z,2.80
2022-10-08T18:42:14.141Z,3.65
2022-10-08T18:47:15.585Z,3.72
2022-10-08T18:52:21.349Z,3.13
2022-10-08T18:57:23.184Z,3.25
2022-10-08T19:02:24.713Z,3.00
2022-10-08T19:07:26.131Z,2.58
2022-10-08T19:12:27.602Z,2.75
2022-10-08T19:17:28.987Z,3.00
2022-10-08T19:22:30.438Z,2.40
2022-10-08T19:27:31.848Z,2.25
2022-10-08T19:32:33.203Z,2.45
2022-10-08T19:37:35.022Z,2.58
2022-10-08T19:42:36.445Z,1.60
2022-10-08T19:47:38.043Z,1.77
2022-10-08T19:52:39.464Z,2.03
2022-10-08T19:57:41.039Z,2.45
2022-10-08T20:02:42.477Z,2.53
2022-10-08T20:07:44.893Z,2.75
2022-10-08T20:12:46.864Z,2.22
2022-10-08T20:17:50.451Z,2.78
2022-10-08T20:22:52.477Z,2.65
2022-10-08T20:27:53.906Z,2.53
2022-10-08T20:32:55.418Z,3.00
2022-10-08T20:37:56.857Z,2.30
2022-10-08T20:43:04.592Z,2.92
2022-10-08T20:48:06.113Z,2.30
2022-10-08T20:53:10.055Z,2.40
2022-10-08T20:58:16.157Z,3.20
2022-10-08T21:03:17.847Z,2.70
2022-10-08T21:08:21.804Z,2.97
2022-10-08T21:13:25.515Z,3.33
2022-10-08T21:18:27.063Z,2.95
2022-10-08T21:23:31.674Z,3.15
2022-10-08T21:28:33.933Z,3.22
2022-10-08T21:33:46.436Z,3.30
2022-10-08T21:38:49.130Z,3.10
2022-10-08T21:43:53.189Z,2.97
2022-10-08T21:48:59.853Z,3.45
2022-10-08T21:54:02.813Z,3.40
2022-10-08T21:59:05.953Z,3.80
2022-10-08T22:04:13.259Z,2.85
2022-10-08T22:09:18.151Z,3.28
2022-10-08T22:14:19.986Z,2.65
2022-10-08T22:19:21.824Z,2.83
2022-10-08T22:24:23.250Z,2.50
2022-10-08T22:29:24.610Z,2.55
2022-10-08T22:34:25.961Z,2.63
2022-10-08T22:39:27.333Z,2.63
2022-10-08T22:44:29.414Z,2.95
2022-10-08T22:49:30.786Z,2.90
2022-10-08T22:54:32.154Z,3.13
2022-10-08T22:59:33.522Z,3.17
2022-10-08T23:04:34.901Z,2.80
2022-10-08T23:09:36.258Z,2.97
2022-10-08T23:14:37.638Z,3.15
2022-10-08T23:19:39.022Z,2.97
2022-10-08T23:24:40.385Z,3.20
2022-10-08T23:29:41.747Z,3.13
2022-10-08T23:34:43.125Z,2.78
2022-10-08T23:39:44.712Z,3.30
2022-10-08T23:44:46.110Z,2.65
2022-10-08T23:49:47.489Z,2.35
2022-10-08T23:54:48.851Z,2.92
2022-10-08T23:59:50.201Z,2.72
